Portland, Oregon
Traffic Map
Current Weather Conditions
Portland, Oregon
Few Clouds
Few Clouds

Feels Like: 7°
Wind Chill: Ceiling: Unl
Heat Index: Visibility: 10mi
Dew Point: Wind: 9mph
Humidity: 83% Direction: 220° (SW)
Pressure: 30.24in Gusts: 0mph
Raw Report DataKPDX 130353Z 22008KT 10SM FEW050 09/07 A3024 RMK AO2 SLP240 T00940067
Traffic Incident Summary
Active as of:
Severity:
Category:
InformationThere was an issue retrieving the traffic information for this location. Please try a different location or try again shortly.
Advertisements
Track Severe Weather on mobile